AirNav   Everest Fuels
 
 1542 users online  

PA80 St Luke's Hospital Heliport
Fountain Hill, Pennsylvania, USA

GOING TO FOUNTAIN HILL?


FAA INFORMATION EFFECTIVE 05 DECEMBER 2019

Location

FAA Identifier: PA80
Lat/Long: 40-36-30.6900N 075-23-39.2700W
40-36.511500N 075-23.654500W
40.6085250,-75.3942417
(estimated)
Elevation: 470 ft. / 143 m (estimated)
Variation: 12W (1995)
Time zone: UTC -5 (UTC -4 during Daylight Saving Time)
Zip code: 18015

Heliport Operations

Heliport use: Private use, HELIPORT FOR MEDICAL USE.
Activation date: 07/1996
Control tower: no
ARTCC: NEW YORK CENTER
FSS: WILLIAMSPORT FLIGHT SERVICE STATION
Attendance: CONTINUOUS
Wind indicator: lighted
Segmented circle: no
Lights: FOR PERI LGTS CALL 484-526-4000.

Heliport Communications

WX ASOS at ABE (3 nm NW): PHONE 610-266-3579
WX AWOS-3 at XLL (5 nm SW): 127.875 (610-231-3111)
WX AWOS-3 at UKT (10 nm S): 119.475 (215-538-7610)
WX AWOS-3 at CKZ (14 nm S): 126.325 (215-257-7291)

Nearby radio navigation aids

VOR radial/distance  VOR name  Freq  Var
FJCr169/7.6ALLENTOWN VORTAC117.5010W
ETXr092/13.3EAST TEXAS VOR/DME110.2009W
PTWr027/24.4POTTSTOWN VORTAC116.5009W
BWZr257/28.4BROADWAY VOR/DME114.2011W
SBJr283/29.8SOLBERG VOR/DME112.9010W
ARDr324/30.8YARDLEY VOR/DME108.2010W
STWr237/33.3STILLWATER VOR/DME109.6011W

 
NDB name  Hdg/Dist  Freq  Var  ID
AMBLER002/29.427512WING .. -. --.

Heliport Services

Runway Information

Helipad H1

Dimensions: 40 x 40 ft. / 12 x 12 m
Surface: mats
Runway edge lights: PERI
PERIMETER LIGHTS.
Runway edge markings: HOSPITAL MARKINGS.
Operational restrictions: ROOFTOP HELIPORT.
Latitude: 40-36.511500N
Longitude: 075-23.654500W
Elevation: 470.0 ft.
Traffic pattern: leftleft

Heliport Ownership and Management from official FAA records

Ownership: Privately-owned
Owner: ST LUKE'S HOSPITAL
801 OSTRUM ST
BETHLEHEM, PA 18015
Phone 484-526-4000
Manager: MICHAEL FORBES
801 OSTRUM ST
BETHLEHEM, PA 18015
Phone (484) 526-4257

Additional Remarks

FOR CD CTC ALLENTOWN APCH AT 800-728-6322.

Instrument Procedures

There are no published instrument procedures at PA80.

Some nearby airports with instrument procedures:

KABE - Lehigh Valley International Airport (3 nm NW)
KXLL - Allentown Queen City Municipal Airport (5 nm SW)
KUKT - Quakertown Airport (10 nm S)
N43 - Braden Airpark (11 nm NE)
KCKZ - Pennridge Airport (14 nm S)
N85 - Alexandria Airport (17 nm E)
N40 - Sky Manor Airport (19 nm E)
 
Loc | Ops | Rwys | IFR | FBO | Links
Com | Nav | Svcs | Stats | Notes
Area around PA80 (St Luke's Hospital Heliport)
 
Road maps at: MapQuest Bing Google
 
Aerial photo
No photo
 
Sectional chart

 
Airport distance calculator
Flying to St Luke's Hospital Heliport? Find the distance to fly.

From to PA80

Sunrise and sunset
Times for 05-Dec-2019
 Local
(UTC-5)
 Zulu
(UTC)
Morning civil twilight06:4011:40
Sunrise07:1112:11
Sunset16:3421:34
Evening civil twilight17:0422:04

Current date and time
Zulu (UTC)  05-Dec-2019 16:51:49
Local (UTC-5)  05-Dec-2019 11:51:49
 
METAR
KABE 
4nm NW 
051551Z 29015G24KT 10SM SCT042 BKN050 OVC065 04/M04 A2984 RMK AO2 RAB45E50 SLP108 P0000 T00441044
KXLL 
5nm SW 
051615Z AUTO 28010G17KT 10SM SCT038 SCT044 BKN070 04/M03 A2986 RMK AO2
KUKT 
10nm S 
051635Z AUTO 27007G19KT 240V310 10SM 05/M05 A2984 RMK A01
KCKZ 
14nm S 
051615Z AUTO 30010G22KT 260V330 10SM UP BKN042 BKN049 OVC060 03/M05 A2985 RMK AO2
TAF
KABE 
4nm NW 
051120Z 0512/0612 26009KT P6SM BKN050 FM051500 28012G22KT P6SM BKN050 FM052200 28008KT P6SM SCT050 FM060500 VRB04KT P6SM BKN150
NOTAMs
Click for the latest NOTAMs
NOTAMs are issued by the DoD/FAA and will open in a separate window not controlled by AirNav.

 

 
 

Would you like to see your business listed on this page?

 If your business provides an interesting product or service to pilots, flight crews, aircraft, or users of the St Luke's Hospital Heliport, you should consider listing it here.  To start the listing process, click on the button below
 
Add a business
 

Other Pages about St Luke's Hospital Heliport

Update a link
 
Copyright © AirNav, LLC. All rights reserved. Privacy Policy  Contact